createdAt,value
2022-11-10T00:01:59.778Z,100777.81
2022-11-10T00:07:01.278Z,100781.34
2022-11-10T00:12:02.844Z,100789.72
2022-11-10T00:17:04.355Z,100792.19
2022-11-10T00:22:05.924Z,100798.50
2022-11-10T00:27:07.329Z,100798.16
2022-11-10T00:32:08.847Z,100809.59
2022-11-10T00:37:10.333Z,100814.66
2022-11-10T00:42:11.761Z,100832.84
2022-11-10T00:47:13.174Z,100839.69
2022-11-10T00:52:14.637Z,100854.94
2022-11-10T00:57:16.017Z,100859.22
2022-11-10T01:02:17.454Z,100871.19
2022-11-10T01:07:18.950Z,100876.22
2022-11-10T01:12:20.378Z,100872.44
2022-11-10T01:17:21.954Z,100888.69
2022-11-10T01:22:23.434Z,100891.66
2022-11-10T01:27:24.858Z,100896.63
2022-11-10T01:32:26.490Z,100897.47
2022-11-10T01:37:28.074Z,100893.56
2022-11-10T01:42:44.890Z,100898.25
2022-11-10T01:47:46.334Z,100902.19
2022-11-10T01:52:50.372Z,100910.22
2022-11-10T01:57:51.869Z,100913.69
2022-11-10T02:03:03.555Z,100923.59
2022-11-10T02:08:05.843Z,100922.66
2022-11-10T02:13:07.322Z,100916.97
2022-11-10T02:18:08.834Z,100910.41
2022-11-10T02:23:34.855Z,100915.50
2022-11-10T02:28:37.690Z,100923.59
2022-11-10T02:33:39.194Z,100944.25
2022-11-10T02:38:40.624Z,100940.16
2022-11-10T02:43:42.208Z,100935.94
2022-11-10T02:48:43.703Z,100938.78
2022-11-10T02:53:45.141Z,100943.56
2022-11-10T02:58:46.550Z,100961.88
2022-11-10T03:03:48.011Z,100958.00
2022-11-10T03:08:49.429Z,100978.53
2022-11-10T03:14:01.487Z,100988.81
2022-11-10T03:19:03.829Z,100996.06
2022-11-10T03:24:05.592Z,101004.19
2022-11-10T03:29:07.085Z,101005.44
2022-11-10T03:34:08.614Z,101017.44
2022-11-10T03:39:10.187Z,101026.00
2022-11-10T03:44:11.640Z,101030.34
2022-11-10T03:49:13.051Z,101040.91
2022-11-10T03:54:14.446Z,101036.19
2022-11-10T03:59:15.830Z,101044.56
2022-11-10T04:04:17.260Z,101040.16
2022-11-10T04:09:18.691Z,101057.00
2022-11-10T04:14:20.134Z,101074.94
2022-11-10T04:19:21.765Z,101073.91
2022-11-10T04:24:23.160Z,101066.78
2022-11-10T04:29:24.606Z,101064.91
2022-11-10T04:34:26.071Z,101061.88
2022-11-10T04:39:27.543Z,101068.09
2022-11-10T04:44:29.006Z,101080.75
2022-11-10T04:49:30.468Z,101073.16
2022-11-10T04:54:31.941Z,101088.78
2022-11-10T04:59:33.445Z,101096.38
2022-11-10T05:04:34.977Z,101120.97
2022-11-10T05:09:36.437Z,101124.09
2022-11-10T05:14:37.841Z,101128.22
2022-11-10T05:19:39.302Z,101135.09
2022-11-10T05:24:40.954Z,101138.47
2022-11-10T05:29:42.430Z,101158.56
2022-11-10T05:34:43.887Z,101171.81
2022-11-10T05:39:45.334Z,101167.50
2022-11-10T05:44:46.735Z,101177.16
2022-11-10T05:49:48.194Z,101197.00
2022-11-10T05:54:49.661Z,101210.25
2022-11-10T05:59:51.134Z,101219.25
2022-11-10T06:04:52.599Z,101219.59
2022-11-10T06:09:54.062Z,101232.38
2022-11-10T06:14:56.523Z,101231.69
2022-11-10T06:19:57.956Z,101234.44
2022-11-10T06:24:59.431Z,101245.59
2022-11-10T06:30:00.868Z,101251.06
2022-11-10T06:35:02.323Z,101267.19
2022-11-10T06:40:04.491Z,101268.84
2022-11-10T06:45:06.311Z,101281.38
2022-11-10T06:50:08.143Z,101291.06
2022-11-10T06:55:09.617Z,101291.56
2022-11-10T07:00:11.742Z,101300.00
2022-11-10T07:05:13.479Z,101309.84
2022-11-10T07:10:15.155Z,101312.47
2022-11-10T07:15:16.571Z,101316.41
2022-11-10T07:20:18.171Z,101332.19
2022-11-10T07:25:19.583Z,101347.88
2022-11-10T07:30:20.971Z,101354.53
2022-11-10T07:35:22.408Z,101365.03
2022-11-10T07:40:24.354Z,101364.84
2022-11-10T07:45:26.166Z,101381.16
2022-11-10T07:50:28.384Z,101393.66
2022-11-10T07:55:30.022Z,101397.09
2022-11-10T08:00:32.826Z,101403.34
2022-11-10T08:05:34.702Z,101411.97
2022-11-10T08:10:36.879Z,101421.69
2022-11-10T08:15:39.414Z,101427.97
2022-11-10T08:20:40.885Z,101433.53
2022-11-10T08:25:42.603Z,101429.41
2022-11-10T08:30:45.797Z,101435.19
2022-11-10T08:35:50.446Z,101436.34
2022-11-10T08:40:51.925Z,101457.63
2022-11-10T08:45:55.588Z,101461.66
2022-11-10T08:51:00.068Z,101460.53
2022-11-10T08:56:01.698Z,101464.06
2022-11-10T09:01:08.106Z,101485.09
2022-11-10T09:06:09.556Z,101481.31
2022-11-10T09:11:11.146Z,101478.69
2022-11-10T09:16:12.600Z,101481.94
2022-11-10T09:21:14.063Z,101487.34
2022-11-10T09:26:15.649Z,101488.41
2022-11-10T09:31:17.284Z,101501.63
2022-11-10T09:36:18.710Z,101510.16
2022-11-10T09:41:20.398Z,101515.59
2022-11-10T09:46:30.976Z,101524.72
2022-11-10T09:51:41.752Z,101524.19
2022-11-10T09:56:46.904Z,101534.09
2022-11-10T10:01:55.137Z,101546.06
2022-11-10T10:07:11.200Z,101554.59
2022-11-10T10:12:51.244Z,101550.53
2022-11-10T10:18:13.994Z,101550.78
2022-11-10T10:24:02.127Z,101533.19
2022-11-10T10:28:52.299Z,101531.88
2022-11-10T10:33:54.975Z,101546.00
2022-11-10T10:39:08.087Z,101551.06
2022-11-10T10:44:12.902Z,101546.75
2022-11-10T10:49:28.198Z,101547.56
2022-11-10T10:54:33.162Z,101549.34
2022-11-10T10:59:34.730Z,101553.50
2022-11-10T11:04:37.560Z,101561.56
2022-11-10T11:09:42.221Z,101562.63
2022-11-10T11:14:46.151Z,101570.13
2022-11-10T11:19:49.311Z,101562.50
2022-11-10T11:25:12.387Z,101559.00
2022-11-10T11:30:16.295Z,101554.97
2022-11-10T11:35:32.809Z,101560.72
2022-11-10T11:40:53.582Z,101567.69
2022-11-10T11:46:07.291Z,101559.41
2022-11-10T11:51:21.404Z,101554.13
2022-11-10T11:56:28.024Z,101552.03
2022-11-10T12:01:40.165Z,101552.78
2022-11-10T12:06:57.248Z,101560.16
2022-11-10T12:12:10.231Z,101565.47
2022-11-10T12:17:26.935Z,101574.03
2022-11-10T12:22:40.252Z,101567.19
2022-11-10T12:27:48.571Z,101575.16
2022-11-10T12:33:01.181Z,101581.50
2022-11-10T12:38:12.875Z,101587.34
2022-11-10T12:43:34.013Z,101590.06
2022-11-10T12:49:04.215Z,101600.38
2022-11-10T12:54:16.321Z,101604.22
2022-11-10T12:59:21.362Z,101597.22
2022-11-10T13:04:23.859Z,101593.16
2022-11-10T13:09:29.166Z,101595.22
2022-11-10T13:14:31.483Z,101596.53
2022-11-10T13:19:32.915Z,101606.38
2022-11-10T13:24:42.501Z,101609.97
2022-11-10T13:29:47.036Z,101610.63
2022-11-10T13:34:48.557Z,101602.22
2022-11-10T13:39:50.492Z,101610.38
2022-11-10T13:44:52.049Z,101607.56
2022-11-10T13:50:12.578Z,101605.06
2022-11-10T13:55:23.052Z,101616.41
2022-11-10T14:00:27.730Z,101628.94
2022-11-10T14:05:29.185Z,101629.88
2022-11-10T14:10:42.591Z,101629.06
2022-11-10T14:15:46.835Z,101635.19
2022-11-10T14:20:56.170Z,101644.78
2022-11-10T14:26:01.090Z,101647.56
2022-11-10T14:31:02.533Z,101653.56
2022-11-10T14:36:06.905Z,101651.66
2022-11-10T14:41:16.510Z,101658.88
2022-11-10T14:46:24.459Z,101667.34
2022-11-10T16:57:39.946Z,101756.69
2022-11-10T17:02:43.619Z,101763.94
2022-11-10T17:07:46.720Z,101774.94
2022-11-10T17:12:48.519Z,101774.09
2022-11-10T17:17:53.879Z,101781.94
2022-11-10T17:22:55.503Z,101787.59
2022-11-10T17:27:56.994Z,101794.09
2022-11-10T17:33:04.749Z,101800.88
2022-11-10T17:38:09.359Z,101799.06
2022-11-10T17:43:12.516Z,101794.72
2022-11-10T17:48:14.618Z,101794.56
2022-11-10T17:53:25.796Z,101795.78
2022-11-10T17:58:27.465Z,101811.53
2022-11-10T18:03:29.023Z,101813.25
2022-11-10T18:08:30.416Z,101819.53
2022-11-10T18:13:31.805Z,101829.41
2022-11-10T18:18:33.183Z,101840.84
2022-11-10T18:23:34.720Z,101833.25
2022-11-10T18:28:36.124Z,101843.88
2022-11-10T18:33:37.555Z,101847.53
2022-11-10T18:38:38.953Z,101852.31
2022-11-10T18:43:40.356Z,101860.97
2022-11-10T18:48:41.885Z,101853.50
2022-11-10T18:53:43.504Z,101863.28
2022-11-10T18:58:44.982Z,101849.06
2022-11-10T19:03:46.385Z,101859.38
2022-11-10T19:08:47.769Z,101860.28
2022-11-10T19:13:49.190Z,101867.78
2022-11-10T19:18:50.660Z,101878.88
2022-11-10T19:23:56.159Z,101872.66
2022-11-10T19:28:57.562Z,101877.47
2022-11-10T19:33:58.958Z,101894.69
2022-11-10T19:39:00.330Z,101898.16
2022-11-10T19:44:01.754Z,101900.78
2022-11-10T19:49:03.888Z,101895.69
2022-11-10T19:54:05.332Z,101891.44
2022-11-10T19:59:06.790Z,101887.41
2022-11-10T20:04:08.199Z,101889.72
2022-11-10T20:09:09.647Z,101887.47
2022-11-10T20:14:11.051Z,101892.59
2022-11-10T20:19:12.466Z,101883.38
2022-11-10T20:24:14.023Z,101893.38
2022-11-10T20:29:15.558Z,101893.34
2022-11-10T20:34:17.006Z,101893.59
2022-11-10T20:39:18.421Z,101907.84
2022-11-10T20:44:19.886Z,101906.66
2022-11-10T20:49:21.474Z,101906.84
2022-11-10T20:54:22.899Z,101915.38
2022-11-10T20:59:24.418Z,101916.50
2022-11-10T21:04:25.950Z,101923.50
2022-11-10T21:09:27.476Z,101928.72
2022-11-10T21:14:28.975Z,101935.22
2022-11-10T21:19:34.982Z,101925.03
2022-11-10T21:24:36.490Z,101916.34
2022-11-10T21:29:38.087Z,101927.00
2022-11-10T21:34:39.516Z,101925.13
2022-11-10T21:39:40.949Z,101929.25
2022-11-10T21:44:42.341Z,101930.75
2022-11-10T21:49:43.758Z,101931.41
2022-11-10T21:54:45.183Z,101917.59
2022-11-10T21:59:46.623Z,101926.41
2022-11-10T22:04:48.522Z,101922.94
2022-11-10T22:09:50.864Z,101918.59
2022-11-10T22:14:52.330Z,101908.84
2022-11-10T22:19:53.742Z,101897.47
2022-11-10T22:24:55.117Z,101906.34
2022-11-10T22:29:56.527Z,101909.84
2022-11-10T22:34:57.912Z,101913.53
2022-11-10T22:40:02.208Z,101902.69
2022-11-10T22:45:03.822Z,101906.00
2022-11-10T22:50:05.725Z,101915.28
2022-11-10T22:55:07.577Z,101917.47
2022-11-10T23:00:09.480Z,101929.22
2022-11-10T23:05:10.895Z,101940.69
2022-11-10T23:10:12.567Z,101942.63
2022-11-10T23:15:13.985Z,101956.25
2022-11-10T23:20:15.394Z,101952.34
2022-11-10T23:25:16.904Z,101954.09
2022-11-10T23:30:18.321Z,101953.25
2022-11-10T23:35:19.875Z,101954.69
2022-11-10T23:40:21.438Z,101957.84
2022-11-10T23:45:22.853Z,101954.28
2022-11-10T23:50:24.297Z,101958.69
2022-11-10T23:55:25.803Z,101960.28
